sensor_id;sensor_type;location;lat;lon;timestamp;pressure;altitude;pressure_sealevel;temperature;humidity
59608;BME280;45426;44.726;10.390;2022-08-01T00:00:00;100394.66;;;25.62;100.00
59608;BME280;45426;44.726;10.390;2022-08-01T00:02:28;100390.78;;;25.88;100.00
59608;BME280;45426;44.726;10.390;2022-08-01T00:04:54;100391.28;;;26.29;100.00
59608;BME280;45426;44.726;10.390;2022-08-01T00:07:19;100392.09;;;26.42;100.00
59608;BME280;45426;44.726;10.390;2022-08-01T00:09:45;100390.28;;;26.23;100.00
59608;BME280;45426;44.726;10.390;2022-08-01T00:12:10;100394.84;;;26.29;100.00
59608;BME280;45426;44.726;10.390;2022-08-01T00:14:36;100399.72;;;25.50;100.00
59608;BME280;45426;44.726;10.390;2022-08-01T00:17:02;100396.41;;;25.55;100.00
59608;BME280;45426;44.726;10.390;2022-08-01T00:19:27;100395.72;;;25.51;100.00
59608;BME280;45426;44.726;10.390;2022-08-01T00:21:53;100394.69;;;26.07;100.00
59608;BME280;45426;44.726;10.390;2022-08-01T00:24:18;100392.50;;;25.53;100.00
59608;BME280;45426;44.726;10.390;2022-08-01T00:26:44;100400.03;;;25.03;100.00
59608;BME280;45426;44.726;10.390;2022-08-01T00:29:09;100392.06;;;25.38;100.00
59608;BME280;45426;44.726;10.390;2022-08-01T00:31:34;100383.63;;;25.58;100.00
59608;BME280;45426;44.726;10.390;2022-08-01T00:34:00;100388.06;;;25.72;100.00
59608;BME280;45426;44.726;10.390;2022-08-01T00:36:25;100385.00;;;26.12;100.00
59608;BME280;45426;44.726;10.390;2022-08-01T00:38:51;100391.06;;;25.94;100.00
59608;BME280;45426;44.726;10.390;2022-08-01T00:41:16;100388.97;;;25.98;100.00
59608;BME280;45426;44.726;10.390;2022-08-01T00:43:42;100392.47;;;25.69;100.00
59608;BME280;45426;44.726;10.390;2022-08-01T00:46:07;100391.28;;;25.37;100.00
59608;BME280;45426;44.726;10.390;2022-08-01T00:48:32;100393.50;;;25.10;100.00
59608;BME280;45426;44.726;10.390;2022-08-01T00:50:58;100395.91;;;25.44;100.00
59608;BME280;45426;44.726;10.390;2022-08-01T00:53:24;100393.72;;;25.52;100.00
59608;BME280;45426;44.726;10.390;2022-08-01T00:55:50;100398.03;;;25.53;100.00
59608;BME280;45426;44.726;10.390;2022-08-01T00:58:15;100406.03;;;25.51;100.00
59608;BME280;45426;44.726;10.390;2022-08-01T01:00:41;100401.50;;;25.08;100.00
59608;BME280;45426;44.726;10.390;2022-08-01T01:03:07;100404.84;;;24.83;100.00
59608;BME280;45426;44.726;10.390;2022-08-01T01:05:38;100399.75;;;24.41;100.00
59608;BME280;45426;44.726;10.390;2022-08-01T01:08:16;100392.28;;;24.58;100.00
59608;BME280;45426;44.726;10.390;2022-08-01T01:10:54;100397.47;;;24.92;100.00
59608;BME280;45426;44.726;10.390;2022-08-01T01:13:35;100406.06;;;25.34;100.00
59608;BME280;45426;44.726;10.390;2022-08-01T01:16:09;100404.50;;;25.33;100.00
59608;BME280;45426;44.726;10.390;2022-08-01T01:18:54;100398.03;;;25.53;100.00
59608;BME280;45426;44.726;10.390;2022-08-01T01:24:17;100399.13;;;25.43;100.00
59608;BME280;45426;44.726;10.390;2022-08-01T01:26:53;100398.13;;;25.16;100.00
59608;BME280;45426;44.726;10.390;2022-08-01T01:29:33;100390.94;;;25.52;100.00
59608;BME280;45426;44.726;10.390;2022-08-01T01:32:07;100387.53;;;25.61;100.00
59608;BME280;45426;44.726;10.390;2022-08-01T01:34:37;100392.34;;;25.27;100.00
59608;BME280;45426;44.726;10.390;2022-08-01T01:37:06;100395.56;;;24.89;100.00
59608;BME280;45426;44.726;10.390;2022-08-01T01:39:35;100394.63;;;24.59;100.00
59608;BME280;45426;44.726;10.390;2022-08-01T01:42:02;100384.13;;;25.04;100.00
59608;BME280;45426;44.726;10.390;2022-08-01T01:44:30;100396.06;;;24.08;100.00
59608;BME280;45426;44.726;10.390;2022-08-01T01:46:56;100392.19;;;24.21;100.00
59608;BME280;45426;44.726;10.390;2022-08-01T01:49:25;100391.50;;;24.57;100.00
59608;BME280;45426;44.726;10.390;2022-08-01T01:51:53;100388.59;;;24.45;100.00
59608;BME280;45426;44.726;10.390;2022-08-01T01:54:20;100394.03;;;24.48;100.00
59608;BME280;45426;44.726;10.390;2022-08-01T01:56:48;100388.22;;;24.63;100.00
59608;BME280;45426;44.726;10.390;2022-08-01T01:59:18;100396.91;;;24.45;100.00
59608;BME280;45426;44.726;10.390;2022-08-01T02:01:48;100393.69;;;25.03;100.00
59608;BME280;45426;44.726;10.390;2022-08-01T02:04:16;100394.44;;;25.23;100.00
59608;BME280;45426;44.726;10.390;2022-08-01T02:06:43;100384.81;;;24.91;100.00
59608;BME280;45426;44.726;10.390;2022-08-01T02:09:11;100390.91;;;25.19;100.00
59608;BME280;45426;44.726;10.390;2022-08-01T02:11:37;100389.34;;;25.02;100.00
59608;BME280;45426;44.726;10.390;2022-08-01T02:14:03;100388.66;;;24.41;100.00
59608;BME280;45426;44.726;10.390;2022-08-01T02:16:31;100387.75;;;24.84;100.00
59608;BME280;45426;44.726;10.390;2022-08-01T02:18:58;100383.75;;;24.85;100.00
59608;BME280;45426;44.726;10.390;2022-08-01T02:21:32;100387.78;;;24.44;100.00
59608;BME280;45426;44.726;10.390;2022-08-01T02:24:09;100388.06;;;23.90;100.00
59608;BME280;45426;44.726;10.390;2022-08-01T02:26:39;100378.41;;;23.51;100.00
59608;BME280;45426;44.726;10.390;2022-08-01T02:29:10;100387.78;;;24.04;100.00
59608;BME280;45426;44.726;10.390;2022-08-01T02:31:39;100382.56;;;23.86;100.00
59608;BME280;45426;44.726;10.390;2022-08-01T02:34:10;100378.09;;;23.69;100.00
59608;BME280;45426;44.726;10.390;2022-08-01T02:36:38;100387.22;;;23.45;100.00
59608;BME280;45426;44.726;10.390;2022-08-01T02:39:08;100386.72;;;23.27;100.00
59608;BME280;45426;44.726;10.390;2022-08-01T02:41:39;100385.25;;;23.19;100.00
59608;BME280;45426;44.726;10.390;2022-08-01T02:44:09;100377.16;;;23.32;100.00
59608;BME280;45426;44.726;10.390;2022-08-01T02:46:40;100383.94;;;23.74;100.00
59608;BME280;45426;44.726;10.390;2022-08-01T02:49:10;100386.72;;;23.74;100.00
59608;BME280;45426;44.726;10.390;2022-08-01T02:51:39;100392.38;;;23.67;100.00
59608;BME280;45426;44.726;10.390;2022-08-01T02:54:06;100386.72;;;23.74;100.00
59608;BME280;45426;44.726;10.390;2022-08-01T03:26:50;100403.03;;;24.36;100.00
59608;BME280;45426;44.726;10.390;2022-08-01T03:29:20;100398.19;;;24.40;100.00
59608;BME280;45426;44.726;10.390;2022-08-01T03:31:48;100402.38;;;24.48;100.00
59608;BME280;45426;44.726;10.390;2022-08-01T03:34:14;100407.81;;;24.55;100.00
59608;BME280;45426;44.726;10.390;2022-08-01T03:39:28;100407.72;;;24.79;100.00
59608;BME280;45426;44.726;10.390;2022-08-01T03:41:59;100399.13;;;24.53;100.00
59608;BME280;45426;44.726;10.390;2022-08-01T03:44:27;100400.56;;;24.62;100.00
59608;BME280;45426;44.726;10.390;2022-08-01T03:47:00;100406.81;;;24.66;100.00
59608;BME280;45426;44.726;10.390;2022-08-01T03:49:31;100407.78;;;24.75;100.00
59608;BME280;45426;44.726;10.390;2022-08-01T03:51:57;100406.47;;;24.64;100.00
59608;BME280;45426;44.726;10.390;2022-08-01T03:54:25;100401.53;;;24.51;100.00
59608;BME280;45426;44.726;10.390;2022-08-01T03:56:52;100416.28;;;24.28;100.00
59608;BME280;45426;44.726;10.390;2022-08-01T03:59:19;100410.72;;;24.28;100.00
59608;BME280;45426;44.726;10.390;2022-08-01T04:01:46;100409.03;;;23.67;100.00
59608;BME280;45426;44.726;10.390;2022-08-01T04:04:12;100408.75;;;23.11;100.00
59608;BME280;45426;44.726;10.390;2022-08-01T04:06:41;100417.09;;;23.58;100.00
59608;BME280;45426;44.726;10.390;2022-08-01T04:09:07;100411.06;;;23.39;100.00
59608;BME280;45426;44.726;10.390;2022-08-01T04:11:33;100423.25;;;23.69;100.00
59608;BME280;45426;44.726;10.390;2022-08-01T04:13:58;100425.06;;;24.03;100.00
59608;BME280;45426;44.726;10.390;2022-08-01T04:16:24;100425.38;;;24.49;100.00
59608;BME280;45426;44.726;10.390;2022-08-01T04:18:50;100416.50;;;24.37;100.00
59608;BME280;45426;44.726;10.390;2022-08-01T04:21:18;100424.53;;;23.88;100.00
59608;BME280;45426;44.726;10.390;2022-08-01T04:23:46;100425.91;;;23.53;100.00
59608;BME280;45426;44.726;10.390;2022-08-01T04:26:14;100430.34;;;24.17;100.00
59608;BME280;45426;44.726;10.390;2022-08-01T04:28:42;100430.16;;;24.28;100.00
59608;BME280;45426;44.726;10.390;2022-08-01T04:31:09;100430.16;;;24.28;100.00
59608;BME280;45426;44.726;10.390;2022-08-01T04:33:38;100427.34;;;24.48;100.00
59608;BME280;45426;44.726;10.390;2022-08-01T04:36:06;100433.97;;;24.14;100.00
59608;BME280;45426;44.726;10.390;2022-08-01T04:38:34;100431.34;;;24.87;100.00
59608;BME280;45426;44.726;10.390;2022-08-01T04:41:04;100436.75;;;24.94;100.00
59608;BME280;45426;44.726;10.390;2022-08-01T04:43:32;100448.88;;;24.84;100.00
59608;BME280;45426;44.726;10.390;2022-08-01T04:45:58;100442.78;;;24.73;100.00
59608;BME280;45426;44.726;10.390;2022-08-01T04:48:24;100440.66;;;24.37;100.00
59608;BME280;45426;44.726;10.390;2022-08-01T04:50:51;100442.47;;;23.83;100.00
59608;BME280;45426;44.726;10.390;2022-08-01T04:53:17;100437.63;;;24.51;100.00
59608;BME280;45426;44.726;10.390;2022-08-01T04:55:44;100441.66;;;24.87;100.00
59608;BME280;45426;44.726;10.390;2022-08-01T04:58:11;100441.13;;;24.75;100.00
59608;BME280;45426;44.726;10.390;2022-08-01T05:00:37;100448.06;;;24.23;100.00
59608;BME280;45426;44.726;10.390;2022-08-01T05:03:03;100448.03;;;24.47;100.00
59608;BME280;45426;44.726;10.390;2022-08-01T05:05:28;100450.28;;;24.92;100.00
59608;BME280;45426;44.726;10.390;2022-08-01T05:07:55;100438.50;;;25.21;100.00
59608;BME280;45426;44.726;10.390;2022-08-01T05:10:21;100441.16;;;25.45;100.00
59608;BME280;45426;44.726;10.390;2022-08-01T05:12:46;100445.63;;;25.42;100.00
59608;BME280;45426;44.726;10.390;2022-08-01T05:15:12;100437.19;;;25.46;100.00
59608;BME280;45426;44.726;10.390;2022-08-01T05:17:37;100439.16;;;25.45;100.00
59608;BME280;45426;44.726;10.390;2022-08-01T05:20:03;100447.03;;;24.57;100.00
59608;BME280;45426;44.726;10.390;2022-08-01T05:22:31;100451.16;;;24.49;100.00
59608;BME280;45426;44.726;10.390;2022-08-01T05:24:57;100447.38;;;25.16;100.00
59608;BME280;45426;44.726;10.390;2022-08-01T05:27:22;100444.13;;;25.37;100.00
59608;BME280;45426;44.726;10.390;2022-08-01T05:29:48;100446.66;;;25.48;100.00
59608;BME280;45426;44.726;10.390;2022-08-01T05:32:13;100445.91;;;26.10;100.00
59608;BME280;45426;44.726;10.390;2022-08-01T05:34:39;100448.56;;;26.30;100.00
59608;BME280;45426;44.726;10.390;2022-08-01T05:37:04;100442.84;;;26.21;100.00
59608;BME280;45426;44.726;10.390;2022-08-01T05:39:29;100449.22;;;26.34;100.00
59608;BME280;45426;44.726;10.390;2022-08-01T05:41:55;100453.66;;;25.86;100.00
59608;BME280;45426;44.726;10.390;2022-08-01T05:44:20;100455.06;;;25.94;100.00
59608;BME280;45426;44.726;10.390;2022-08-01T05:46:46;100460.91;;;26.29;100.00
59608;BME280;45426;44.726;10.390;2022-08-01T05:49:11;100456.00;;;26.33;100.00
59608;BME280;45426;44.726;10.390;2022-08-01T05:51:37;100455.19;;;26.20;100.00
59608;BME280;45426;44.726;10.390;2022-08-01T05:54:02;100457.94;;;26.36;100.00
59608;BME280;45426;44.726;10.390;2022-08-01T05:56:28;100461.31;;;26.57;100.00
59608;BME280;45426;44.726;10.390;2022-08-01T05:58:53;100453.81;;;26.11;100.00
59608;BME280;45426;44.726;10.390;2022-08-01T06:01:19;100458.16;;;26.42;100.00
59608;BME280;45426;44.726;10.390;2022-08-01T06:03:45;100459.69;;;26.30;100.00
59608;BME280;45426;44.726;10.390;2022-08-01T06:06:10;100463.34;;;26.27;100.00
59608;BME280;45426;44.726;10.390;2022-08-01T06:08:36;100466.06;;;26.60;100.00
59608;BME280;45426;44.726;10.390;2022-08-01T06:11:03;100463.88;;;26.51;100.00
59608;BME280;45426;44.726;10.390;2022-08-01T06:13:28;100460.19;;;26.41;100.00
59608;BME280;45426;44.726;10.390;2022-08-01T06:15:54;100456.53;;;26.99;100.00
59608;BME280;45426;44.726;10.390;2022-08-01T06:18:19;100461.88;;;27.19;100.00
59608;BME280;45426;44.726;10.390;2022-08-01T06:20:45;100460.22;;;27.09;100.00
59608;BME280;45426;44.726;10.390;2022-08-01T06:23:10;100462.56;;;27.36;100.00
59608;BME280;45426;44.726;10.390;2022-08-01T06:25:36;100458.31;;;27.57;100.00
59608;BME280;45426;44.726;10.390;2022-08-01T06:28:02;100457.22;;;28.02;100.00
59608;BME280;45426;44.726;10.390;2022-08-01T06:30:28;100464.16;;;27.98;100.00
59608;BME280;45426;44.726;10.390;2022-08-01T06:32:53;100457.44;;;28.30;100.00
59608;BME280;45426;44.726;10.390;2022-08-01T06:35:21;100464.84;;;28.68;100.00
59608;BME280;45426;44.726;10.390;2022-08-01T06:37:46;100463.97;;;29.12;100.00
59608;BME280;45426;44.726;10.390;2022-08-01T06:40:13;100468.06;;;29.70;100.00
59608;BME280;45426;44.726;10.390;2022-08-01T06:42:38;100466.47;;;29.50;100.00
59608;BME280;45426;44.726;10.390;2022-08-01T06:45:09;100458.31;;;30.57;100.00
59608;BME280;45426;44.726;10.390;2022-08-01T06:47:35;100460.00;;;31.49;100.00
59608;BME280;45426;44.726;10.390;2022-08-01T06:50:03;100466.16;;;31.87;100.00
59608;BME280;45426;44.726;10.390;2022-08-01T06:52:29;100459.03;;;33.70;100.00
59608;BME280;45426;44.726;10.390;2022-08-01T06:54:54;100460.03;;;36.56;100.00
59608;BME280;45426;44.726;10.390;2022-08-01T06:57:19;100462.75;;;37.63;100.00
59608;BME280;45426;44.726;10.390;2022-08-01T06:59:45;100456.63;;;41.11;100.00
59608;BME280;45426;44.726;10.390;2022-08-01T07:02:10;100461.28;;;43.08;100.00
59608;BME280;45426;44.726;10.390;2022-08-01T07:04:36;100460.72;;;44.49;94.27
59608;BME280;45426;44.726;10.390;2022-08-01T07:07:01;100461.63;;;45.37;87.28
59608;BME280;45426;44.726;10.390;2022-08-01T07:09:27;100456.28;;;45.25;78.82
59608;BME280;45426;44.726;10.390;2022-08-01T07:11:53;100465.78;;;46.57;70.16
59608;BME280;45426;44.726;10.390;2022-08-01T07:14:19;100459.44;;;46.01;77.28
59608;BME280;45426;44.726;10.390;2022-08-01T07:16:45;100464.81;;;46.80;76.94
59608;BME280;45426;44.726;10.390;2022-08-01T07:19:10;100465.25;;;46.26;68.34
59608;BME280;45426;44.726;10.390;2022-08-01T07:21:36;100460.38;;;46.86;69.66
59608;BME280;45426;44.726;10.390;2022-08-01T07:24:03;100457.75;;;46.56;78.57
59608;BME280;45426;44.726;10.390;2022-08-01T07:26:28;100457.13;;;47.87;68.75
59608;BME280;45426;44.726;10.390;2022-08-01T07:28:54;100461.66;;;46.68;72.57
59608;BME280;45426;44.726;10.390;2022-08-01T07:31:19;100455.41;;;47.04;72.84
59608;BME280;45426;44.726;10.390;2022-08-01T07:33:44;100457.28;;;47.27;68.22
59608;BME280;45426;44.726;10.390;2022-08-01T07:36:10;100455.22;;;47.55;64.80
59608;BME280;45426;44.726;10.390;2022-08-01T07:38:36;100454.91;;;45.90;70.57
59608;BME280;45426;44.726;10.390;2022-08-01T07:41:01;100448.13;;;46.36;72.47
59608;BME280;45426;44.726;10.390;2022-08-01T07:43:27;100447.47;;;46.70;71.52
59608;BME280;45426;44.726;10.390;2022-08-01T07:45:53;100450.16;;;46.51;72.65
59608;BME280;45426;44.726;10.390;2022-08-01T07:48:18;100453.13;;;46.02;77.38
59608;BME280;45426;44.726;10.390;2022-08-01T07:50:45;100446.03;;;45.07;70.49
59608;BME280;45426;44.726;10.390;2022-08-01T07:53:11;100446.13;;;44.01;76.51
59608;BME280;45426;44.726;10.390;2022-08-01T07:55:36;100437.38;;;45.22;72.30
59608;BME280;45426;44.726;10.390;2022-08-01T07:58:02;100453.44;;;44.33;73.61
59608;BME280;45426;44.726;10.390;2022-08-01T08:00:28;100434.41;;;41.98;89.16
59608;BME280;45426;44.726;10.390;2022-08-01T08:02:54;100443.34;;;39.66;100.00
59608;BME280;45426;44.726;10.390;2022-08-01T08:05:19;100448.22;;;36.80;100.00
59608;BME280;45426;44.726;10.390;2022-08-01T08:07:45;100448.19;;;36.63;100.00
59608;BME280;45426;44.726;10.390;2022-08-01T08:10:10;100439.22;;;36.70;100.00
59608;BME280;45426;44.726;10.390;2022-08-01T08:12:36;100449.47;;;34.55;100.00
59608;BME280;45426;44.726;10.390;2022-08-01T08:15:01;100444.06;;;36.36;100.00
59608;BME280;45426;44.726;10.390;2022-08-01T08:17:30;100443.53;;;37.05;100.00
59608;BME280;45426;44.726;10.390;2022-08-01T08:19:57;100455.63;;;36.43;100.00
59608;BME280;45426;44.726;10.390;2022-08-01T08:22:22;100448.06;;;35.95;100.00
59608;BME280;45426;44.726;10.390;2022-08-01T08:24:48;100448.56;;;35.88;100.00
59608;BME280;45426;44.726;10.390;2022-08-01T08:27:14;100445.34;;;36.40;100.00
59608;BME280;45426;44.726;10.390;2022-08-01T08:29:40;100444.66;;;35.25;100.00
59608;BME280;45426;44.726;10.390;2022-08-01T08:32:06;100457.56;;;34.42;100.00
59608;BME280;45426;44.726;10.390;2022-08-01T08:34:32;100450.22;;;35.63;100.00
59608;BME280;45426;44.726;10.390;2022-08-01T08:36:57;100440.38;;;35.41;100.00
59608;BME280;45426;44.726;10.390;2022-08-01T08:39:23;100445.78;;;35.02;100.00
59608;BME280;45426;44.726;10.390;2022-08-01T08:41:49;100440.53;;;35.69;100.00
59608;BME280;45426;44.726;10.390;2022-08-01T08:44:14;100441.44;;;35.49;100.00
59608;BME280;45426;44.726;10.390;2022-08-01T08:46:45;100449.38;;;35.02;100.00
59608;BME280;45426;44.726;10.390;2022-08-01T08:49:14;100443.69;;;35.34;100.00
59608;BME280;45426;44.726;10.390;2022-08-01T08:51:41;100446.38;;;35.17;100.00
59608;BME280;45426;44.726;10.390;2022-08-01T08:54:07;100451.88;;;33.90;100.00
59608;BME280;45426;44.726;10.390;2022-08-01T08:56:37;100443.34;;;34.83;100.00
59608;BME280;45426;44.726;10.390;2022-08-01T08:59:03;100438.25;;;35.25;100.00
59608;BME280;45426;44.726;10.390;2022-08-01T09:01:31;100441.03;;;34.55;100.00
59608;BME280;45426;44.726;10.390;2022-08-01T09:03:57;100441.78;;;34.82;100.00
59608;BME280;45426;44.726;10.390;2022-08-01T09:06:24;100430.66;;;35.48;100.00
59608;BME280;45426;44.726;10.390;2022-08-01T09:08:49;100438.03;;;35.34;100.00
59608;BME280;45426;44.726;10.390;2022-08-01T09:11:15;100439.88;;;36.03;100.00
59608;BME280;45426;44.726;10.390;2022-08-01T09:13:41;100432.75;;;35.58;100.00
59608;BME280;45426;44.726;10.390;2022-08-01T09:16:06;100436.22;;;35.85;100.00
59608;BME280;45426;44.726;10.390;2022-08-01T09:18:39;100434.00;;;35.09;100.00
59608;BME280;45426;44.726;10.390;2022-08-01T09:21:20;100428.69;;;34.85;100.00
59608;BME280;45426;44.726;10.390;2022-08-01T09:23:54;100429.16;;;35.58;100.00
59608;BME280;45426;44.726;10.390;2022-08-01T09:26:29;100425.94;;;35.82;100.00
59608;BME280;45426;44.726;10.390;2022-08-01T09:28:55;100429.53;;;35.28;100.00
59608;BME280;45426;44.726;10.390;2022-08-01T09:31:21;100416.22;;;35.34;100.00
59608;BME280;45426;44.726;10.390;2022-08-01T09:34:04;100417.88;;;35.64;100.00
59608;BME280;45426;44.726;10.390;2022-08-01T09:36:51;100414.66;;;35.93;100.00
59608;BME280;45426;44.726;10.390;2022-08-01T09:39:18;100412.94;;;35.53;100.00
59608;BME280;45426;44.726;10.390;2022-08-01T09:41:44;100412.56;;;35.77;100.00
59608;BME280;45426;44.726;10.390;2022-08-01T09:44:10;100416.53;;;35.53;100.00
59608;BME280;45426;44.726;10.390;2022-08-01T09:46:35;100413.34;;;35.29;100.00
59608;BME280;45426;44.726;10.390;2022-08-01T09:49:05;100410.00;;;35.25;100.00
59608;BME280;45426;44.726;10.390;2022-08-01T09:53:56;100417.97;;;35.81;100.00
59608;BME280;45426;44.726;10.390;2022-08-01T09:56:22;100404.66;;;35.32;100.00
59608;BME280;45426;44.726;10.390;2022-08-01T09:58:57;100408.16;;;35.70;100.00
59608;BME280;45426;44.726;10.390;2022-08-01T10:01:22;100404.13;;;35.94;100.00
59608;BME280;45426;44.726;10.390;2022-08-01T10:04:07;100403.38;;;36.10;100.00
59608;BME280;45426;44.726;10.390;2022-08-01T10:06:33;100399.06;;;35.44;100.00
59608;BME280;45426;44.726;10.390;2022-08-01T10:08:59;100406.03;;;35.54;100.00
59608;BME280;45426;44.726;10.390;2022-08-01T10:11:24;100398.47;;;35.94;100.00
59608;BME280;45426;44.726;10.390;2022-08-01T10:13:50;100394.94;;;36.33;100.00
59608;BME280;45426;44.726;10.390;2022-08-01T10:16:16;100391.53;;;35.95;100.00
59608;BME280;45426;44.726;10.390;2022-08-01T10:18:41;100391.25;;;35.87;100.00
59608;BME280;45426;44.726;10.390;2022-08-01T10:21:09;100394.91;;;36.16;100.00
59608;BME280;45426;44.726;10.390;2022-08-01T10:23:36;100389.81;;;36.48;100.00
59608;BME280;45426;44.726;10.390;2022-08-01T10:26:04;100384.16;;;36.48;100.00
59608;BME280;45426;44.726;10.390;2022-08-01T10:28:31;100374.84;;;36.03;100.00
59608;BME280;45426;44.726;10.390;2022-08-01T10:31:00;100374.91;;;36.31;100.00
59608;BME280;45426;44.726;10.390;2022-08-01T10:33:28;100379.22;;;36.04;100.00
59608;BME280;45426;44.726;10.390;2022-08-01T10:35:53;100373.09;;;36.39;100.00
59608;BME280;45426;44.726;10.390;2022-08-01T10:38:19;100371.53;;;36.21;100.00
59608;BME280;45426;44.726;10.390;2022-08-01T10:40:45;100358.69;;;36.60;100.00
59608;BME280;45426;44.726;10.390;2022-08-01T10:43:11;100359.69;;;36.62;100.00
59608;BME280;45426;44.726;10.390;2022-08-01T10:45:37;100359.84;;;35.08;100.00
59608;BME280;45426;44.726;10.390;2022-08-01T10:48:15;100359.22;;;36.36;100.00
59608;BME280;45426;44.726;10.390;2022-08-01T10:50:44;100352.38;;;35.60;100.00
59608;BME280;45426;44.726;10.390;2022-08-01T10:53:21;100351.22;;;36.34;100.00
59608;BME280;45426;44.726;10.390;2022-08-01T10:55:58;100354.06;;;36.68;100.00
59608;BME280;45426;44.726;10.390;2022-08-01T10:58:38;100353.34;;;35.40;100.00
59608;BME280;45426;44.726;10.390;2022-08-01T11:01:25;100349.41;;;35.26;100.00
59608;BME280;45426;44.726;10.390;2022-08-01T11:08:58;100338.63;;;36.41;100.00
59608;BME280;45426;44.726;10.390;2022-08-01T11:11:23;100330.69;;;36.28;100.00
59608;BME280;45426;44.726;10.390;2022-08-01T11:14:05;100328.50;;;35.66;100.00
59608;BME280;45426;44.726;10.390;2022-08-01T11:16:37;100317.53;;;36.36;100.00
59608;BME280;45426;44.726;10.390;2022-08-01T11:19:04;100315.63;;;37.01;100.00
59608;BME280;45426;44.726;10.390;2022-08-01T11:32:49;100299.63;;;37.20;100.00
59608;BME280;45426;44.726;10.390;2022-08-01T11:35:15;100301.72;;;37.14;100.00
59608;BME280;45426;44.726;10.390;2022-08-01T11:37:41;100298.50;;;36.70;100.00
59608;BME280;45426;44.726;10.390;2022-08-01T11:40:23;100283.34;;;36.11;100.00
59608;BME280;45426;44.726;10.390;2022-08-01T11:42:51;100285.69;;;36.19;100.00
59608;BME280;45426;44.726;10.390;2022-08-01T11:45:53;100283.63;;;36.19;100.00
59608;BME280;45426;44.726;10.390;2022-08-01T11:48:22;100280.28;;;36.32;100.00
59608;BME280;45426;44.726;10.390;2022-08-01T11:50:50;100279.81;;;37.09;100.00
59608;BME280;45426;44.726;10.390;2022-08-01T11:53:16;100277.13;;;37.39;100.00
59608;BME280;45426;44.726;10.390;2022-08-01T11:55:48;100270.59;;;37.03;100.00
59608;BME280;45426;44.726;10.390;2022-08-01T11:58:15;100264.59;;;37.23;100.00
59608;BME280;45426;44.726;10.390;2022-08-01T12:00:40;100266.09;;;37.36;100.00
59608;BME280;45426;44.726;10.390;2022-08-01T12:03:08;100260.78;;;37.62;100.00
59608;BME280;45426;44.726;10.390;2022-08-01T12:05:35;100256.88;;;37.18;100.00
59608;BME280;45426;44.726;10.390;2022-08-01T12:08:02;100249.94;;;35.82;100.00
59608;BME280;45426;44.726;10.390;2022-08-01T12:10:32;100245.06;;;37.08;100.00
59608;BME280;45426;44.726;10.390;2022-08-01T12:13:04;100247.03;;;37.30;100.00
59608;BME280;45426;44.726;10.390;2022-08-01T12:15:32;100235.50;;;37.23;100.00
59608;BME280;45426;44.726;10.390;2022-08-01T12:18:00;100240.81;;;37.38;100.00
59608;BME280;45426;44.726;10.390;2022-08-01T12:20:30;100232.28;;;37.43;100.00
59608;BME280;45426;44.726;10.390;2022-08-01T12:22:57;100235.09;;;37.49;100.00
59608;BME280;45426;44.726;10.390;2022-08-01T12:25:23;100229.84;;;37.64;100.00
59608;BME280;45426;44.726;10.390;2022-08-01T12:27:49;100229.41;;;37.49;100.00
59608;BME280;45426;44.726;10.390;2022-08-01T12:30:20;100221.53;;;37.72;100.00
59608;BME280;45426;44.726;10.390;2022-08-01T12:32:48;100215.16;;;37.60;100.00
59608;BME280;45426;44.726;10.390;2022-08-01T12:35:16;100223.50;;;37.83;100.00
59608;BME280;45426;44.726;10.390;2022-08-01T12:37:49;100222.47;;;37.44;100.00
59608;BME280;45426;44.726;10.390;2022-08-01T12:42:42;100215.94;;;37.61;100.00
59608;BME280;45426;44.726;10.390;2022-08-01T12:45:11;100214.97;;;37.11;100.00
59608;BME280;45426;44.726;10.390;2022-08-01T12:47:38;100214.00;;;37.80;100.00
59608;BME280;45426;44.726;10.390;2022-08-01T12:50:18;100219.97;;;37.77;100.00
59608;BME280;45426;44.726;10.390;2022-08-01T12:52:44;100198.56;;;37.76;100.00
59608;BME280;45426;44.726;10.390;2022-08-01T12:55:49;100205.47;;;37.86;100.00
59608;BME280;45426;44.726;10.390;2022-08-01T12:58:15;100204.53;;;37.72;100.00
59608;BME280;45426;44.726;10.390;2022-08-01T13:00:44;100203.81;;;37.66;100.00
59608;BME280;45426;44.726;10.390;2022-08-01T13:03:15;100193.94;;;38.09;100.00
59608;BME280;45426;44.726;10.390;2022-08-01T13:05:54;100202.59;;;37.50;100.00
59608;BME280;45426;44.726;10.390;2022-08-01T13:08:31;100195.69;;;38.12;100.00
59608;BME280;45426;44.726;10.390;2022-08-01T13:11:02;100191.28;;;37.86;100.00
59608;BME280;45426;44.726;10.390;2022-08-01T13:16:06;100202.38;;;37.48;100.00
59608;BME280;45426;44.726;10.390;2022-08-01T13:18:34;100198.69;;;37.59;100.00
59608;BME280;45426;44.726;10.390;2022-08-01T13:26:46;100181.50;;;37.51;100.00
59608;BME280;45426;44.726;10.390;2022-08-01T13:29:14;100185.81;;;37.58;100.00
59608;BME280;45426;44.726;10.390;2022-08-01T13:31:40;100176.72;;;37.71;100.00
59608;BME280;45426;44.726;10.390;2022-08-01T13:34:06;100177.84;;;37.56;100.00
59608;BME280;45426;44.726;10.390;2022-08-01T13:36:33;100183.19;;;37.29;100.00
59608;BME280;45426;44.726;10.390;2022-08-01T13:38:59;100177.00;;;37.67;100.00